• Join FlightAware (Why Join?)
  • Login
  • US Flag 
01:48PM EST


 

Airport Tracker/Info


-or-


 

Live Flight TrackerFlight Track Log ✈ AWE1940 ✈ 26-Jun-2013 ✈ KCLT - KALB

Flight Track Log - Related Links

Times and Time Zones

All times are in EDT time to prevent confusion due to time zone crossing. See the AWE1940 flight status page for this flight to view local times or setup timezone preferences in your user account.

Time Position Orientation Groundspeed Altitude Reporting Facility
EDT Latitude Longitude Course Direction KTS MPH feet Rate Location/Type
10:20PM 35.1892 -80.9508 52° Northeast 180 207 1,900  Level Atlanta Center
10:22PM 35.1022 -80.9797 195° South 232 267 6,300 2,760 Climbing Atlanta Center
10:23PM 35.0956 -81.0483 263° West 235 270 9,000 2,280 Climbing Atlanta Center
10:23PM 35.1297 -81.0750 327° Northwest 277 319 9,700 1,860 Climbing Atlanta Center
10:24PM 35.2350 -81.2167 North  Level FlightAware Approximate
10:24PM 35.2042 -81.0547 13° North 325 374 12,000  Level Atlanta Center
10:25PM 35.3080 -81.1280 52° Northeast  Level FlightAware Approximate
10:25PM 35.2953 -81.0258 15° North 348 400 13,800  Level Atlanta Center
10:26PM 35.3792 -81.0161 52° Northeast  Level FlightAware Approximate
10:26PM 35.3864 -80.9919 17° North 348 400 14,600  Level Atlanta Center
10:27PM 35.4875 -80.9550 17° North 348 400 15,400 1,500 Climbing Atlanta Center
10:28PM 35.5736 -80.8956 29° Northeast 343 395 17,600 2,340 Climbing Atlanta Center
10:29PM 35.6733 -80.8767 North 349 402 20,100 1,980 Climbing Atlanta Center
10:30PM 35.7817 -80.8672 North 371 427 21,600 1,620 Climbing Atlanta Center
10:31PM 35.8981 -80.8550 North 402 463 23,400 1,860 Climbing Atlanta Center
10:32PM 36.0186 -80.8425 North 424 488 25,400 1,800 Climbing Atlanta Center
10:33PM 36.1394 -80.8275 North 424 488 27,000 1,500 Climbing Atlanta Center
10:34PM 36.2642 -80.8147 North 434 499 28,500 1,560 Climbing Atlanta Center
10:35PM 36.3819 -80.7792 14° North 440 506 30,200 1,560 Climbing Atlanta Center
10:36PM 36.4794 -80.6822 39° Northeast 434 499 31,700 1,260 Climbing Atlanta Center
10:37PM 36.5769 -80.5850 39° Northeast 439 505 32,800 660 Climbing Atlanta Center
10:38PM 36.6600 -80.5011 39° Northeast 433 498 33,100 540 Climbing Atlanta Center
10:41PM 36.9078 -80.2650 37° Northeast 441 507 34,700 540 Climbing Washington Center
10:42PM 37.0033 -80.1694 39° Northeast 436 502 35,000 120 Climbing Washington Center
10:43PM 37.0986 -80.0761 38° Northeast 436 502 35,000  Level Washington Center
10:44PM 37.1853 -79.9900 38° Northeast 436 502 35,100  Climbing Washington Center
10:45PM 37.2806 -79.8961 38° Northeast 436 502 35,000 -60 Descending Washington Center
10:46PM 37.3756 -79.8022 38° Northeast 436 502 35,000  Level Washington Center
10:47PM 37.4836 -79.6931 39° Northeast 451 519 35,100  Climbing Washington Center
10:48PM 37.5703 -79.6033 39° Northeast 451 519 35,000  Descending Washington Center
10:49PM 37.6758 -79.4961 39° Northeast 441 507 35,100  Climbing Washington Center
10:50PM 37.7686 -79.4064 37° Northeast 441 507 35,000 -60 Descending Washington Center
10:51PM 37.8719 -79.3011 39° Northeast 441 507 35,000  Level Washington Center
10:52PM 37.9689 -79.2006 39° Northeast 441 507 35,000  Level Washington Center
10:53PM 38.0656 -79.1022 39° Northeast 441 507 35,000  Level Washington Center
10:54PM 38.1644 -79.0039 38° Northeast 436 502 35,000  Level Washington Center
10:55PM 38.2503 -78.9153 39° Northeast 441 507 35,000  Level Washington Center
10:56PM 38.3536 -78.8008 41° Northeast 435 501 35,000  Level Washington Center
10:57PM 38.4522 -78.6989 39° Northeast 440 506 35,000  Level Washington Center
10:58PM 38.5486 -78.5967 40° Northeast 445 512 35,000  Level Washington Center
10:59PM 38.6469 -78.4944 39° Northeast 445 512 35,000  Level Washington Center
11:00PM 38.7644 -78.3711 39° Northeast 445 512 35,000  Level Washington Center
11:01PM 38.8608 -78.2656 40° Northeast 445 512 35,100 480 Climbing Washington Center
11:03PM 39.0069 -78.1117 39° Northeast 439 505 36,300 720 Climbing New York Center
11:04PM 39.1031 -78.0092 40° Northeast 444 511 37,000 300 Climbing New York Center
11:05PM 39.1992 -77.9036 40° Northeast 444 511 37,000  Level New York Center
11:06PM 39.2969 -77.8008 39° Northeast 449 517 37,000  Level New York Center
11:07PM 39.3931 -77.6947 40° Northeast 449 517 37,000  Level New York Center
11:08PM 39.4911 -77.5886 40° Northeast 449 517 37,000  Level New York Center
11:09PM 39.5889 -77.4819 40° Northeast 449 517 37,000  Level New York Center
11:10PM 39.6847 -77.3750 41° Northeast 449 517 37,000  Level New York Center
11:11PM 39.7800 -77.2706 40° Northeast 449 517 37,000  Level New York Center
11:12PM 39.8778 -77.1633 40° Northeast 449 517 37,000  Level New York Center
11:13PM 39.9731 -77.0556 41° Northeast 449 517 37,000  Level New York Center
11:14PM 40.0706 -76.9475 40° Northeast 449 517 37,000  Level New York Center
11:15PM 40.1722 -76.8369 40° Northeast 449 517 37,000  Level New York Center
11:16PM 40.2675 -76.7283 41° Northeast 444 511 37,000  Level New York Center
11:17PM 40.3625 -76.6222 40° Northeast 444 511 37,000  Level New York Center
11:18PM 40.4572 -76.5156 41° Northeast 444 511 37,000  Level New York Center
11:19PM 40.5517 -76.4142 39° Northeast 444 511 37,000 -300 Level New York Center
11:20PM 40.6489 -76.3017 41° Northeast 449 517 36,500 -1,320 Descending New York Center
11:21PM 40.7392 -76.1967 41° Northeast 449 517 34,400 -1,980 Descending New York Center
11:22PM 40.8358 -76.0864 41° Northeast 449 517 32,600 -1,380 Descending New York Center
11:23PM 40.9325 -75.9758 41° Northeast 449 517 31,700 -900 Descending New York Center
11:24PM 41.0247 -75.8647 42° Northeast 449 517 30,800 -960 Descending New York Center
11:25PM 41.1211 -75.7536 41° Northeast 449 517 29,800 -900 Descending New York Center
11:26PM 41.2172 -75.6447 40° Northeast 449 517 29,100 -420 Descending New York Center
11:27PM 41.3156 -75.5331 40° Northeast 449 517 29,000 -60 Descending New York Center
11:28PM 41.4117 -75.4208 41° Northeast 449 517 29,000  Level New York Center
11:29PM 41.5056 -75.3083 42° Northeast 449 517 29,000 -120 Level New York Center
11:30PM 41.6014 -75.1956 41° Northeast 449 517 28,800 -1,320 Descending New York Center
11:32PM 41.8333 -74.9228 41° Northeast 473 544 24,600 -1,440 Descending Boston Center
11:33PM 41.9361 -74.7983 42° Northeast 468 539 23,900 -1,200 Descending Boston Center
11:34PM 42.0150 -74.7064 41° Northeast 443 510 22,200 -2,040 Descending Boston Center
11:35PM 42.1092 -74.5894 43° Northeast 419 482 19,900 -2,280 Descending Boston Center
11:36PM 42.1986 -74.4831 41° Northeast 419 482 17,700 -2,160 Descending Boston Center
11:37PM 42.2839 -74.3792 42° Northeast 419 482 15,600 -2,160 Descending Boston Center
11:38PM 42.3583 -74.2861 43° Northeast 398 458 13,500 -2,520 Descending Boston Center
11:39PM 42.4411 -74.1844 42° Northeast 393 452 10,800 -1,740 Descending Boston Center
11:40PM 42.5178 -74.0881 43° Northeast 334 384 10,000 -1,140 Descending Boston Center
11:41PM 42.5933 -74.0447 23° Northeast 283 326 8,500 -1,560 Descending Boston Center
11:42PM 42.6689 -74.0100 19° North 281 323 6,900 -1,680 Descending Boston Center
11:43PM 42.7444 -73.9781 17° North 278 320 5,200 -1,680 Descending Boston Center
11:43PM 42.7444 -73.9781 17° North 282 325 5,200 -900 Level Boston Center
11:44PM 42.8136 -73.9486 17° North 267 307 4,300 -840 Descending Boston Center
11:45PM 42.8619 -73.9017 35° Northeast 216 249 3,600 -900 Descending Boston Center
11:46PM 42.8586 -73.8336 94° East 189 217 2,500 -1,080 Descending Boston Center